sensor_id;sensor_type;location;lat;lon;timestamp;pressure;altitude;pressure_sealevel;temperature;humidity
62928;BME280;51070;52.236;-0.892;2022-12-07T00:02:15;101547.29;;;2.73;94.75
62928;BME280;51070;52.236;-0.892;2022-12-07T00:04:40;101544.59;;;2.75;95.29
62928;BME280;51070;52.236;-0.892;2022-12-07T00:07:06;101538.01;;;2.78;95.21
62928;BME280;51070;52.236;-0.892;2022-12-07T00:09:31;101537.92;;;2.77;94.94
62928;BME280;51070;52.236;-0.892;2022-12-07T00:11:56;101532.72;;;2.76;94.59
62928;BME280;51070;52.236;-0.892;2022-12-07T00:14:22;101534.08;;;2.72;94.14
62928;BME280;51070;52.236;-0.892;2022-12-07T00:16:49;101532.77;;;2.66;94.39
62928;BME280;51070;52.236;-0.892;2022-12-07T00:19:15;101539.02;;;2.63;94.75
62928;BME280;51070;52.236;-0.892;2022-12-07T00:21:41;101540.46;;;2.61;94.94
62928;BME280;51070;52.236;-0.892;2022-12-07T00:24:07;101532.86;;;2.62;94.99
62928;BME280;51070;52.236;-0.892;2022-12-07T00:26:35;101535.89;;;2.64;94.82
62928;BME280;51070;52.236;-0.892;2022-12-07T00:29:03;101537.17;;;2.65;94.63
62928;BME280;51070;52.236;-0.892;2022-12-07T00:31:33;101538.98;;;2.67;94.85
62928;BME280;51070;52.236;-0.892;2022-12-07T00:34:00;101532.21;;;2.65;94.89
62928;BME280;51070;52.236;-0.892;2022-12-07T00:36:26;101527.52;;;2.64;94.87
62928;BME280;51070;52.236;-0.892;2022-12-07T00:38:52;101530.68;;;2.63;94.92
62928;BME280;51070;52.236;-0.892;2022-12-07T00:41:20;101534.88;;;2.60;94.76
62928;BME280;51070;52.236;-0.892;2022-12-07T00:43:47;101533.02;;;2.58;94.85
62928;BME280;51070;52.236;-0.892;2022-12-07T00:46:14;101536.89;;;2.52;94.64
62928;BME280;51070;52.236;-0.892;2022-12-07T00:48:40;101537.45;;;2.49;94.69
62928;BME280;51070;52.236;-0.892;2022-12-07T00:51:07;101534.02;;;2.46;94.72
62928;BME280;51070;52.236;-0.892;2022-12-07T00:53:36;101535.15;;;2.46;94.85
62928;BME280;51070;52.236;-0.892;2022-12-07T00:56:06;101531.81;;;2.47;95.29
62928;BME280;51070;52.236;-0.892;2022-12-07T00:58:31;101532.02;;;2.49;95.41
62928;BME280;51070;52.236;-0.892;2022-12-07T01:01:00;101529.02;;;2.52;95.33
62928;BME280;51070;52.236;-0.892;2022-12-07T01:03:26;101528.05;;;2.53;94.99
62928;BME280;51070;52.236;-0.892;2022-12-07T01:05:53;101528.50;;;2.52;94.85
62928;BME280;51070;52.236;-0.892;2022-12-07T01:08:20;101528.30;;;2.50;95.00
62928;BME280;51070;52.236;-0.892;2022-12-07T01:10:46;101527.64;;;2.48;94.88
62928;BME280;51070;52.236;-0.892;2022-12-07T01:13:12;101530.14;;;2.45;95.13
62928;BME280;51070;52.236;-0.892;2022-12-07T01:15:42;101527.52;;;2.42;95.23
62928;BME280;51070;52.236;-0.892;2022-12-07T01:18:08;101529.75;;;2.40;95.00
62928;BME280;51070;52.236;-0.892;2022-12-07T01:20:34;101531.39;;;2.39;95.26
62928;BME280;51070;52.236;-0.892;2022-12-07T01:22:59;101529.94;;;2.40;95.61
62928;BME280;51070;52.236;-0.892;2022-12-07T01:25:25;101532.39;;;2.41;95.52
62928;BME280;51070;52.236;-0.892;2022-12-07T01:27:50;101530.23;;;2.42;95.31
62928;BME280;51070;52.236;-0.892;2022-12-07T01:30:15;101527.75;;;2.43;95.56
62928;BME280;51070;52.236;-0.892;2022-12-07T01:32:41;101525.06;;;2.45;95.54
62928;BME280;51070;52.236;-0.892;2022-12-07T01:35:07;101525.34;;;2.47;95.40
62928;BME280;51070;52.236;-0.892;2022-12-07T01:37:36;101525.83;;;2.49;95.67
62928;BME280;51070;52.236;-0.892;2022-12-07T01:40:03;101530.35;;;2.50;95.41
62928;BME280;51070;52.236;-0.892;2022-12-07T01:42:29;101524.95;;;2.48;95.17
62928;BME280;51070;52.236;-0.892;2022-12-07T01:47:58;101528.38;;;2.44;95.46
62928;BME280;51070;52.236;-0.892;2022-12-07T01:50:26;101524.33;;;2.42;95.24
62928;BME280;51070;52.236;-0.892;2022-12-07T01:52:54;101525.00;;;2.40;95.03
62928;BME280;51070;52.236;-0.892;2022-12-07T01:55:22;101527.64;;;2.39;95.41
62928;BME280;51070;52.236;-0.892;2022-12-07T01:57:50;101525.88;;;2.38;95.16
62928;BME280;51070;52.236;-0.892;2022-12-07T02:00:18;101526.66;;;2.37;95.51
62928;BME280;51070;52.236;-0.892;2022-12-07T02:03:08;101525.36;;;2.38;95.28
62928;BME280;51070;52.236;-0.892;2022-12-07T02:05:38;101523.04;;;2.41;95.39
62928;BME280;51070;52.236;-0.892;2022-12-07T02:08:05;101521.96;;;2.43;95.06
62928;BME280;51070;52.236;-0.892;2022-12-07T02:10:31;101521.23;;;2.42;95.43
62928;BME280;51070;52.236;-0.892;2022-12-07T02:13:20;101519.32;;;2.39;95.01
62928;BME280;51070;52.236;-0.892;2022-12-07T02:21:36;101519.70;;;2.29;95.27
62928;BME280;51070;52.236;-0.892;2022-12-07T02:30:00;101508.68;;;2.19;95.30
62928;BME280;51070;52.236;-0.892;2022-12-07T02:36:02;101507.40;;;2.20;95.71
62928;BME280;51070;52.236;-0.892;2022-12-07T02:38:45;101507.07;;;2.23;95.37
62928;BME280;51070;52.236;-0.892;2022-12-07T02:41:17;101502.23;;;2.24;95.35
62928;BME280;51070;52.236;-0.892;2022-12-07T02:43:52;101497.93;;;2.23;95.38
62928;BME280;51070;52.236;-0.892;2022-12-07T02:46:27;101494.32;;;2.23;95.49
62928;BME280;51070;52.236;-0.892;2022-12-07T02:48:54;101492.88;;;2.22;95.62
62928;BME280;51070;52.236;-0.892;2022-12-07T02:51:21;101493.62;;;2.19;95.16
62928;BME280;51070;52.236;-0.892;2022-12-07T02:53:47;101492.31;;;2.15;94.81
62928;BME280;51070;52.236;-0.892;2022-12-07T03:07:51;101487.77;;;2.04;95.19
62928;BME280;51070;52.236;-0.892;2022-12-07T03:13:40;101480.88;;;2.01;95.10
62928;BME280;51070;52.236;-0.892;2022-12-07T03:19:03;101480.11;;;1.98;95.17
62928;BME280;51070;52.236;-0.892;2022-12-07T03:21:38;101474.56;;;1.93;95.09
62928;BME280;51070;52.236;-0.892;2022-12-07T03:24:34;101473.37;;;1.88;94.90
62928;BME280;51070;52.236;-0.892;2022-12-07T03:27:09;101474.23;;;1.87;95.27
62928;BME280;51070;52.236;-0.892;2022-12-07T03:29:42;101474.49;;;1.86;95.20
62928;BME280;51070;52.236;-0.892;2022-12-07T03:32:36;101466.77;;;1.85;95.04
62928;BME280;51070;52.236;-0.892;2022-12-07T03:35:16;101459.00;;;1.83;95.04
62928;BME280;51070;52.236;-0.892;2022-12-07T03:37:51;101465.65;;;1.84;95.33
62928;BME280;51070;52.236;-0.892;2022-12-07T03:42:48;101462.54;;;1.85;95.54
62928;BME280;51070;52.236;-0.892;2022-12-07T03:45:15;101465.20;;;1.89;95.51
62928;BME280;51070;52.236;-0.892;2022-12-07T03:47:54;101471.02;;;1.89;95.36
62928;BME280;51070;52.236;-0.892;2022-12-07T03:50:29;101469.00;;;1.89;95.18
62928;BME280;51070;52.236;-0.892;2022-12-07T03:53:18;101466.45;;;1.89;95.37
62928;BME280;51070;52.236;-0.892;2022-12-07T03:55:46;101469.95;;;1.86;94.88
62928;BME280;51070;52.236;-0.892;2022-12-07T03:58:18;101466.84;;;1.84;94.92
62928;BME280;51070;52.236;-0.892;2022-12-07T04:00:44;101465.35;;;1.82;94.83
62928;BME280;51070;52.236;-0.892;2022-12-07T04:03:11;101465.42;;;1.81;94.90
62928;BME280;51070;52.236;-0.892;2022-12-07T04:05:37;101468.53;;;1.79;94.84
62928;BME280;51070;52.236;-0.892;2022-12-07T04:08:03;101470.61;;;1.77;95.15
62928;BME280;51070;52.236;-0.892;2022-12-07T04:10:29;101458.81;;;1.79;95.44
62928;BME280;51070;52.236;-0.892;2022-12-07T04:12:54;101462.56;;;1.81;95.03
62928;BME280;51070;52.236;-0.892;2022-12-07T04:15:20;101461.17;;;1.81;95.05
62928;BME280;51070;52.236;-0.892;2022-12-07T04:17:46;101457.89;;;1.82;95.13
62928;BME280;51070;52.236;-0.892;2022-12-07T04:20:12;101472.61;;;1.79;94.54
62928;BME280;51070;52.236;-0.892;2022-12-07T04:22:37;101472.89;;;1.76;94.68
62928;BME280;51070;52.236;-0.892;2022-12-07T04:25:04;101476.44;;;1.71;94.49
62928;BME280;51070;52.236;-0.892;2022-12-07T04:27:29;101474.73;;;1.67;94.55
62928;BME280;51070;52.236;-0.892;2022-12-07T04:29:54;101479.29;;;1.62;94.21
62928;BME280;51070;52.236;-0.892;2022-12-07T04:32:21;101476.98;;;1.59;94.22
62928;BME280;51070;52.236;-0.892;2022-12-07T04:34:47;101472.70;;;1.57;94.41
62928;BME280;51070;52.236;-0.892;2022-12-07T04:37:12;101476.25;;;1.56;94.66
62928;BME280;51070;52.236;-0.892;2022-12-07T04:39:37;101472.95;;;1.53;94.07
62928;BME280;51070;52.236;-0.892;2022-12-07T04:42:03;101470.95;;;1.52;93.96
62928;BME280;51070;52.236;-0.892;2022-12-07T04:44:29;101465.75;;;1.48;93.98
62928;BME280;51070;52.236;-0.892;2022-12-07T04:46:55;101463.70;;;1.46;93.98
62928;BME280;51070;52.236;-0.892;2022-12-07T04:49:22;101468.69;;;1.45;94.14
62928;BME280;51070;52.236;-0.892;2022-12-07T04:51:49;101463.60;;;1.43;94.23
62928;BME280;51070;52.236;-0.892;2022-12-07T04:54:15;101457.10;;;1.40;93.81
62928;BME280;51070;52.236;-0.892;2022-12-07T04:56:41;101458.73;;;1.38;93.84
62928;BME280;51070;52.236;-0.892;2022-12-07T04:59:07;101457.80;;;1.34;93.74
62928;BME280;51070;52.236;-0.892;2022-12-07T05:01:32;101456.30;;;1.28;93.81
62928;BME280;51070;52.236;-0.892;2022-12-07T05:03:58;101457.61;;;1.21;93.58
62928;BME280;51070;52.236;-0.892;2022-12-07T05:06:24;101458.98;;;1.17;94.06
62928;BME280;51070;52.236;-0.892;2022-12-07T05:08:50;101457.52;;;1.16;94.50
62928;BME280;51070;52.236;-0.892;2022-12-07T05:11:16;101458.83;;;1.15;94.34
62928;BME280;51070;52.236;-0.892;2022-12-07T05:14:02;101456.98;;;1.16;94.29
62928;BME280;51070;52.236;-0.892;2022-12-07T05:16:27;101452.75;;;1.16;94.61
62928;BME280;51070;52.236;-0.892;2022-12-07T05:18:53;101456.66;;;1.16;94.46
62928;BME280;51070;52.236;-0.892;2022-12-07T05:21:18;101454.71;;;1.15;94.38
62928;BME280;51070;52.236;-0.892;2022-12-07T05:23:44;101454.87;;;1.15;94.23
62928;BME280;51070;52.236;-0.892;2022-12-07T05:26:09;101454.56;;;1.13;94.18
62928;BME280;51070;52.236;-0.892;2022-12-07T05:28:35;101456.19;;;1.12;94.31
62928;BME280;51070;52.236;-0.892;2022-12-07T05:31:00;101453.86;;;1.11;94.09
62928;BME280;51070;52.236;-0.892;2022-12-07T05:33:26;101456.30;;;1.10;94.24
62928;BME280;51070;52.236;-0.892;2022-12-07T05:35:51;101453.08;;;1.12;94.09
62928;BME280;51070;52.236;-0.892;2022-12-07T05:38:16;101456.00;;;1.14;94.37
62928;BME280;51070;52.236;-0.892;2022-12-07T05:40:42;101456.15;;;1.16;93.95
62928;BME280;51070;52.236;-0.892;2022-12-07T05:43:07;101452.34;;;1.19;94.12
62928;BME280;51070;52.236;-0.892;2022-12-07T05:45:33;101452.66;;;1.21;94.02
62928;BME280;51070;52.236;-0.892;2022-12-07T05:47:58;101446.63;;;1.24;94.33
62928;BME280;51070;52.236;-0.892;2022-12-07T05:50:24;101445.92;;;1.29;94.60
62928;BME280;51070;52.236;-0.892;2022-12-07T05:52:49;101446.31;;;1.29;93.81
62928;BME280;51070;52.236;-0.892;2022-12-07T05:55:15;101442.77;;;1.25;93.53
62928;BME280;51070;52.236;-0.892;2022-12-07T05:57:40;101442.30;;;1.23;93.74
62928;BME280;51070;52.236;-0.892;2022-12-07T06:00:25;101441.66;;;1.22;94.00
62928;BME280;51070;52.236;-0.892;2022-12-07T06:02:51;101446.45;;;1.20;94.02
62928;BME280;51070;52.236;-0.892;2022-12-07T06:05:16;101440.75;;;1.19;93.91
62928;BME280;51070;52.236;-0.892;2022-12-07T06:07:41;101437.35;;;1.19;93.96
62928;BME280;51070;52.236;-0.892;2022-12-07T06:10:08;101435.64;;;1.19;93.77
62928;BME280;51070;52.236;-0.892;2022-12-07T06:12:33;101432.17;;;1.20;94.03
62928;BME280;51070;52.236;-0.892;2022-12-07T06:14:58;101428.81;;;1.23;94.20
62928;BME280;51070;52.236;-0.892;2022-12-07T06:17:24;101423.85;;;1.25;94.06
62928;BME280;51070;52.236;-0.892;2022-12-07T06:19:50;101419.67;;;1.24;93.62
62928;BME280;51070;52.236;-0.892;2022-12-07T06:22:15;101419.79;;;1.21;93.28
62928;BME280;51070;52.236;-0.892;2022-12-07T06:24:41;101422.89;;;1.17;93.65
62928;BME280;51070;52.236;-0.892;2022-12-07T06:27:07;101428.44;;;1.14;93.74
62928;BME280;51070;52.236;-0.892;2022-12-07T06:29:32;101428.84;;;1.13;93.96
62928;BME280;51070;52.236;-0.892;2022-12-07T06:31:58;101428.53;;;1.09;93.74
62928;BME280;51070;52.236;-0.892;2022-12-07T06:34:24;101432.54;;;1.06;93.88
62928;BME280;51070;52.236;-0.892;2022-12-07T06:36:51;101430.53;;;1.05;93.91
62928;BME280;51070;52.236;-0.892;2022-12-07T06:39:19;101430.72;;;1.05;94.49
62928;BME280;51070;52.236;-0.892;2022-12-07T06:41:45;101431.35;;;1.04;93.92
62928;BME280;51070;52.236;-0.892;2022-12-07T06:44:11;101430.08;;;1.03;93.98
62928;BME280;51070;52.236;-0.892;2022-12-07T06:46:36;101432.32;;;1.04;94.30
62928;BME280;51070;52.236;-0.892;2022-12-07T06:49:03;101427.19;;;1.01;93.93
62928;BME280;51070;52.236;-0.892;2022-12-07T06:51:28;101431.95;;;0.99;93.76
62928;BME280;51070;52.236;-0.892;2022-12-07T06:53:55;101434.35;;;0.97;94.19
62928;BME280;51070;52.236;-0.892;2022-12-07T06:56:20;101435.64;;;0.94;94.04
62928;BME280;51070;52.236;-0.892;2022-12-07T06:58:45;101440.19;;;0.94;94.49
62928;BME280;51070;52.236;-0.892;2022-12-07T07:01:13;101439.66;;;0.91;94.01
62928;BME280;51070;52.236;-0.892;2022-12-07T07:03:39;101439.08;;;0.88;94.10
62928;BME280;51070;52.236;-0.892;2022-12-07T07:06:05;101439.64;;;0.87;94.04
62928;BME280;51070;52.236;-0.892;2022-12-07T07:08:33;101442.14;;;0.87;93.97
62928;BME280;51070;52.236;-0.892;2022-12-07T07:10:58;101445.78;;;0.85;93.65
62928;BME280;51070;52.236;-0.892;2022-12-07T07:13:24;101446.16;;;0.83;94.06
62928;BME280;51070;52.236;-0.892;2022-12-07T07:15:49;101446.25;;;0.82;94.12
62928;BME280;51070;52.236;-0.892;2022-12-07T07:18:15;101451.34;;;0.84;94.38
62928;BME280;51070;52.236;-0.892;2022-12-07T07:20:40;101446.79;;;0.87;94.73
62928;BME280;51070;52.236;-0.892;2022-12-07T07:23:05;101448.52;;;0.92;94.33
62928;BME280;51070;52.236;-0.892;2022-12-07T07:25:33;101444.77;;;0.92;93.95
62928;BME280;51070;52.236;-0.892;2022-12-07T07:27:59;101443.46;;;0.88;93.90
62928;BME280;51070;52.236;-0.892;2022-12-07T07:30:24;101441.28;;;0.86;93.68
62928;BME280;51070;52.236;-0.892;2022-12-07T07:32:50;101439.77;;;0.84;93.95
62928;BME280;51070;52.236;-0.892;2022-12-07T07:35:16;101441.79;;;0.82;93.62
62928;BME280;51070;52.236;-0.892;2022-12-07T07:37:41;101439.77;;;0.80;93.77
62928;BME280;51070;52.236;-0.892;2022-12-07T07:40:08;101436.61;;;0.77;93.98
62928;BME280;51070;52.236;-0.892;2022-12-07T07:42:34;101436.54;;;0.76;93.91
62928;BME280;51070;52.236;-0.892;2022-12-07T07:44:59;101438.64;;;0.77;93.86
62928;BME280;51070;52.236;-0.892;2022-12-07T07:47:25;101443.40;;;0.77;94.21
62928;BME280;51070;52.236;-0.892;2022-12-07T07:49:50;101440.81;;;0.78;94.03
62928;BME280;51070;52.236;-0.892;2022-12-07T07:52:15;101442.36;;;0.78;93.94
62928;BME280;51070;52.236;-0.892;2022-12-07T07:54:41;101441.45;;;0.78;93.85
62928;BME280;51070;52.236;-0.892;2022-12-07T07:57:06;101436.81;;;0.77;94.00
62928;BME280;51070;52.236;-0.892;2022-12-07T07:59:32;101438.13;;;0.79;94.20
62928;BME280;51070;52.236;-0.892;2022-12-07T08:01:57;101438.23;;;0.80;94.04
62928;BME280;51070;52.236;-0.892;2022-12-07T08:04:22;101438.59;;;0.80;93.74
62928;BME280;51070;52.236;-0.892;2022-12-07T08:06:48;101434.81;;;0.80;93.56
62928;BME280;51070;52.236;-0.892;2022-12-07T08:09:13;101440.67;;;0.79;93.23
62928;BME280;51070;52.236;-0.892;2022-12-07T08:11:39;101442.02;;;0.78;93.50
62928;BME280;51070;52.236;-0.892;2022-12-07T08:14:04;101443.81;;;0.78;93.50
62928;BME280;51070;52.236;-0.892;2022-12-07T08:16:30;101443.81;;;0.78;93.35
62928;BME280;51070;52.236;-0.892;2022-12-07T08:18:55;101443.08;;;0.77;93.21
62928;BME280;51070;52.236;-0.892;2022-12-07T08:21:21;101447.75;;;0.78;93.42
62928;BME280;51070;52.236;-0.892;2022-12-07T08:23:47;101446.63;;;0.79;93.59
62928;BME280;51070;52.236;-0.892;2022-12-07T08:26:14;101447.77;;;0.82;94.05
62928;BME280;51070;52.236;-0.892;2022-12-07T08:28:40;101447.48;;;0.87;94.09
62928;BME280;51070;52.236;-0.892;2022-12-07T08:31:14;101445.07;;;0.89;93.65
62928;BME280;51070;52.236;-0.892;2022-12-07T08:33:41;101448.29;;;0.91;93.52
62928;BME280;51070;52.236;-0.892;2022-12-07T08:36:09;101447.91;;;0.90;93.25
62928;BME280;51070;52.236;-0.892;2022-12-07T08:38:35;101446.83;;;0.88;93.10
62928;BME280;51070;52.236;-0.892;2022-12-07T08:41:02;101448.81;;;0.87;93.28
62928;BME280;51070;52.236;-0.892;2022-12-07T08:43:27;101448.80;;;0.89;93.25
62928;BME280;51070;52.236;-0.892;2022-12-07T08:48:25;101445.25;;;0.95;93.48
62928;BME280;51070;52.236;-0.892;2022-12-07T08:50:50;101444.14;;;1.00;93.40
62928;BME280;51070;52.236;-0.892;2022-12-07T08:53:16;101441.74;;;1.06;93.20
62928;BME280;51070;52.236;-0.892;2022-12-07T08:55:44;101438.09;;;1.14;93.49
62928;BME280;51070;52.236;-0.892;2022-12-07T08:58:10;101432.23;;;1.19;93.24
62928;BME280;51070;52.236;-0.892;2022-12-07T09:00:35;101432.23;;;1.23;92.88
62928;BME280;51070;52.236;-0.892;2022-12-07T09:03:01;101435.30;;;1.25;92.81
62928;BME280;51070;52.236;-0.892;2022-12-07T09:05:26;101432.20;;;1.27;92.54
62928;BME280;51070;52.236;-0.892;2022-12-07T09:07:57;101430.83;;;1.27;92.43
62928;BME280;51070;52.236;-0.892;2022-12-07T09:10:25;101430.09;;;1.26;92.25
62928;BME280;51070;52.236;-0.892;2022-12-07T09:12:51;101433.85;;;1.24;92.33
62928;BME280;51070;52.236;-0.892;2022-12-07T09:15:16;101433.09;;;1.23;92.34
62928;BME280;51070;52.236;-0.892;2022-12-07T09:17:42;101431.54;;;1.21;92.04
62928;BME280;51070;52.236;-0.892;2022-12-07T09:20:08;101436.32;;;1.19;92.15
62928;BME280;51070;52.236;-0.892;2022-12-07T09:22:33;101436.91;;;1.18;92.19
62928;BME280;51070;52.236;-0.892;2022-12-07T09:24:59;101434.64;;;1.15;92.08
62928;BME280;51070;52.236;-0.892;2022-12-07T09:27:26;101431.65;;;1.16;92.59
62928;BME280;51070;52.236;-0.892;2022-12-07T09:29:52;101428.55;;;1.20;92.70
62928;BME280;51070;52.236;-0.892;2022-12-07T09:32:17;101427.74;;;1.25;92.40
62928;BME280;51070;52.236;-0.892;2022-12-07T09:34:43;101426.84;;;1.31;92.55
62928;BME280;51070;52.236;-0.892;2022-12-07T09:37:08;101428.59;;;1.38;92.31
62928;BME280;51070;52.236;-0.892;2022-12-07T09:39:34;101430.83;;;1.44;92.00
62928;BME280;51070;52.236;-0.892;2022-12-07T09:42:03;101431.23;;;1.49;91.91
62928;BME280;51070;52.236;-0.892;2022-12-07T09:44:29;101436.63;;;1.53;91.64
62928;BME280;51070;52.236;-0.892;2022-12-07T09:46:55;101431.13;;;1.52;91.48
62928;BME280;51070;52.236;-0.892;2022-12-07T09:49:23;101432.31;;;1.52;91.49
62928;BME280;51070;52.236;-0.892;2022-12-07T09:54:36;101428.55;;;1.52;91.67
62928;BME280;51070;52.236;-0.892;2022-12-07T09:57:05;101428.34;;;1.56;91.74
62928;BME280;51070;52.236;-0.892;2022-12-07T09:59:30;101421.31;;;1.59;91.81
62928;BME280;51070;52.236;-0.892;2022-12-07T10:05:00;101416.55;;;1.70;91.62
62928;BME280;51070;52.236;-0.892;2022-12-07T10:07:26;101415.44;;;1.74;91.62
62928;BME280;51070;52.236;-0.892;2022-12-07T10:09:52;101414.70;;;1.75;91.28
62928;BME280;51070;52.236;-0.892;2022-12-07T10:12:17;101406.69;;;1.77;91.56
62928;BME280;51070;52.236;-0.892;2022-12-07T10:15:04;101409.31;;;1.78;91.05
62928;BME280;51070;52.236;-0.892;2022-12-07T10:17:37;101406.06;;;1.80;91.31
62928;BME280;51070;52.236;-0.892;2022-12-07T10:22:36;101400.50;;;2.14;90.37
62928;BME280;51070;52.236;-0.892;2022-12-07T10:25:19;101405.41;;;2.42;89.76
62928;BME280;51070;52.236;-0.892;2022-12-07T10:27:58;101404.79;;;2.73;89.64
62928;BME280;51070;52.236;-0.892;2022-12-07T10:30:23;101400.23;;;3.06;89.00
62928;BME280;51070;52.236;-0.892;2022-12-07T10:32:49;101401.91;;;3.39;89.05
62928;BME280;51070;52.236;-0.892;2022-12-07T10:35:27;101399.53;;;3.67;87.75
62928;BME280;51070;52.236;-0.892;2022-12-07T10:37:55;101394.95;;;3.95;86.60
62928;BME280;51070;52.236;-0.892;2022-12-07T10:40:35;101396.45;;;4.19;85.66
62928;BME280;51070;52.236;-0.892;2022-12-07T10:48:28;101384.88;;;4.87;83.92
62928;BME280;51070;52.236;-0.892;2022-12-07T10:53:52;101383.35;;;4.94;82.43
62928;BME280;51070;52.236;-0.892;2022-12-07T11:04:18;101364.20;;;5.19;80.98
62928;BME280;51070;52.236;-0.892;2022-12-07T11:10:00;101355.10;;;5.43;79.90
62928;BME280;51070;52.236;-0.892;2022-12-07T11:18:22;101351.50;;;5.62;78.95
62928;BME280;51070;52.236;-0.892;2022-12-07T11:26:41;101346.77;;;5.91;77.12
62928;BME280;51070;52.236;-0.892;2022-12-07T11:37:49;101326.57;;;6.49;75.49
62928;BME280;51070;52.236;-0.892;2022-12-07T11:40:24;101318.73;;;6.53;74.08
62928;BME280;51070;52.236;-0.892;2022-12-07T11:45:30;101318.20;;;6.44;74.17
62928;BME280;51070;52.236;-0.892;2022-12-07T11:48:01;101309.80;;;6.50;73.90
62928;BME280;51070;52.236;-0.892;2022-12-07T11:50:40;101308.58;;;6.47;73.64
62928;BME280;51070;52.236;-0.892;2022-12-07T11:53:46;101306.89;;;6.35;74.02
62928;BME280;51070;52.236;-0.892;2022-12-07T11:56:16;101299.70;;;6.24;73.50
62928;BME280;51070;52.236;-0.892;2022-12-07T11:58:55;101297.14;;;6.13;73.59
62928;BME280;51070;52.236;-0.892;2022-12-07T12:06:40;101286.45;;;6.03;74.39
62928;BME280;51070;52.236;-0.892;2022-12-07T12:09:24;101279.55;;;6.00;74.27
62928;BME280;51070;52.236;-0.892;2022-12-07T12:17:47;101270.77;;;6.02;74.04
62928;BME280;51070;52.236;-0.892;2022-12-07T12:20:22;101266.41;;;5.95;74.05
62928;BME280;51070;52.236;-0.892;2022-12-07T12:23:00;101260.67;;;5.91;74.40
62928;BME280;51070;52.236;-0.892;2022-12-07T12:25:45;101260.22;;;5.86;74.23
62928;BME280;51070;52.236;-0.892;2022-12-07T12:28:41;101260.30;;;5.77;74.21
62928;BME280;51070;52.236;-0.892;2022-12-07T12:33:50;101260.23;;;5.56;74.09
62928;BME280;51070;52.236;-0.892;2022-12-07T12:36:23;101254.15;;;5.49;74.13
62928;BME280;51070;52.236;-0.892;2022-12-07T12:46:59;101240.29;;;5.49;74.56
62928;BME280;51070;52.236;-0.892;2022-12-07T12:54:25;101224.77;;;5.59;74.29
62928;BME280;51070;52.236;-0.892;2022-12-07T12:56:52;101222.94;;;5.63;74.23
62928;BME280;51070;52.236;-0.892;2022-12-07T12:59:22;101221.84;;;5.64;73.92
62928;BME280;51070;52.236;-0.892;2022-12-07T13:01:50;101221.15;;;5.64;73.88
62928;BME280;51070;52.236;-0.892;2022-12-07T13:04:27;101218.20;;;5.64;73.70
62928;BME280;51070;52.236;-0.892;2022-12-07T13:06:55;101218.42;;;5.67;73.95
62928;BME280;51070;52.236;-0.892;2022-12-07T13:09:23;101220.52;;;5.69;73.50
62928;BME280;51070;52.236;-0.892;2022-12-07T13:11:58;101218.94;;;5.68;73.50
62928;BME280;51070;52.236;-0.892;2022-12-07T13:17:08;101208.69;;;5.65;73.46
62928;BME280;51070;52.236;-0.892;2022-12-07T13:25:11;101200.73;;;5.56;73.47
62928;BME280;51070;52.236;-0.892;2022-12-07T13:27:38;101194.44;;;5.57;73.89
62928;BME280;51070;52.236;-0.892;2022-12-07T13:30:20;101188.43;;;5.57;73.41
62928;BME280;51070;52.236;-0.892;2022-12-07T13:32:53;101186.52;;;5.56;73.73
62928;BME280;51070;52.236;-0.892;2022-12-07T13:35:37;101185.24;;;5.58;73.72
62928;BME280;51070;52.236;-0.892;2022-12-07T13:38:16;101181.10;;;5.57;73.49
62928;BME280;51070;52.236;-0.892;2022-12-07T13:41:03;101177.29;;;5.59;73.42
62928;BME280;51070;52.236;-0.892;2022-12-07T13:43:28;101170.92;;;5.59;73.54
62928;BME280;51070;52.236;-0.892;2022-12-07T13:45:58;101165.76;;;5.59;73.35
62928;BME280;51070;52.236;-0.892;2022-12-07T13:48:31;101163.74;;;5.57;73.30
62928;BME280;51070;52.236;-0.892;2022-12-07T13:50:59;101159.01;;;5.51;73.08
62928;BME280;51070;52.236;-0.892;2022-12-07T13:53:26;101153.64;;;5.45;73.35
62928;BME280;51070;52.236;-0.892;2022-12-07T13:56:00;101151.42;;;5.45;73.88
62928;BME280;51070;52.236;-0.892;2022-12-07T13:58:27;101146.64;;;5.45;73.69
62928;BME280;51070;52.236;-0.892;2022-12-07T14:00:55;101150.54;;;5.47;74.09
62928;BME280;51070;52.236;-0.892;2022-12-07T14:03:32;101146.17;;;5.49;73.86
62928;BME280;51070;52.236;-0.892;2022-12-07T14:06:05;101146.08;;;5.44;73.67
62928;BME280;51070;52.236;-0.892;2022-12-07T14:08:31;101141.29;;;5.39;73.34
62928;BME280;51070;52.236;-0.892;2022-12-07T14:10:57;101143.27;;;5.32;73.39
62928;BME280;51070;52.236;-0.892;2022-12-07T14:13:31;101136.66;;;5.25;73.71
62928;BME280;51070;52.236;-0.892;2022-12-07T14:16:00;101129.56;;;5.21;73.88
62928;BME280;51070;52.236;-0.892;2022-12-07T14:18:40;101128.81;;;5.14;74.12
62928;BME280;51070;52.236;-0.892;2022-12-07T14:23:34;101128.78;;;5.11;74.41
62928;BME280;51070;52.236;-0.892;2022-12-07T14:26:19;101127.65;;;5.09;74.56
62928;BME280;51070;52.236;-0.892;2022-12-07T14:28:46;101126.86;;;5.10;74.83
62928;BME280;51070;52.236;-0.892;2022-12-07T14:31:15;101126.34;;;5.10;74.44
62928;BME280;51070;52.236;-0.892;2022-12-07T14:33:41;101125.77;;;5.06;74.63
62928;BME280;51070;52.236;-0.892;2022-12-07T14:36:14;101124.56;;;5.03;74.82
62928;BME280;51070;52.236;-0.892;2022-12-07T14:38:40;101120.09;;;5.00;74.66
62928;BME280;51070;52.236;-0.892;2022-12-07T14:41:13;101123.38;;;4.92;74.74
62928;BME280;51070;52.236;-0.892;2022-12-07T14:43:59;101120.91;;;4.86;74.90
62928;BME280;51070;52.236;-0.892;2022-12-07T14:46:25;101118.04;;;4.78;74.75
62928;BME280;51070;52.236;-0.892;2022-12-07T14:48:50;101116.54;;;4.70;75.14
62928;BME280;51070;52.236;-0.892;2022-12-07T14:51:16;101112.26;;;4.64;75.12
62928;BME280;51070;52.236;-0.892;2022-12-07T14:53:51;101113.80;;;4.62;75.44
62928;BME280;51070;52.236;-0.892;2022-12-07T14:56:17;101109.50;;;4.58;75.45
62928;BME280;51070;52.236;-0.892;2022-12-07T14:58:42;101105.46;;;4.54;75.86
62928;BME280;51070;52.236;-0.892;2022-12-07T15:01:08;101107.35;;;4.52;75.94
62928;BME280;51070;52.236;-0.892;2022-12-07T15:03:34;101102.42;;;4.47;76.06
62928;BME280;51070;52.236;-0.892;2022-12-07T15:06:00;101101.13;;;4.42;76.11
62928;BME280;51070;52.236;-0.892;2022-12-07T15:08:26;101099.39;;;4.39;76.20